createdAt,value
2022-11-21T00:00:46.070Z,98541.75
2022-11-21T00:03:13.007Z,98542.78
2022-11-21T00:05:44.908Z,98535.84
2022-11-21T00:08:12.478Z,98540.16
2022-11-21T00:10:39.828Z,98536.66
2022-11-21T00:13:07.383Z,98538.19
2022-11-21T00:15:35.589Z,98541.69
2022-11-21T00:18:03.754Z,98537.47
2022-11-21T00:20:30.367Z,98534.84
2022-11-21T00:22:56.843Z,98533.31
2022-11-21T00:25:23.259Z,98538.25
2022-11-21T00:27:49.670Z,98533.03
2022-11-21T00:30:16.133Z,98538.84
2022-11-21T00:32:42.499Z,98528.28
2022-11-21T00:35:09.014Z,98526.81
2022-11-21T00:37:35.538Z,98525.56
2022-11-21T00:40:02.043Z,98519.66
2022-11-21T00:42:28.428Z,98507.72
2022-11-21T00:44:54.877Z,98505.66
2022-11-21T00:47:21.301Z,98503.75
2022-11-21T00:49:48.048Z,98508.09
2022-11-21T00:52:16.069Z,98510.16
2022-11-21T00:54:42.536Z,98499.81
2022-11-21T00:57:08.894Z,98505.78
2022-11-21T00:59:35.344Z,98506.53
2022-11-21T01:02:01.881Z,98499.38
2022-11-21T01:04:32.951Z,98495.94
2022-11-21T01:06:59.595Z,98491.75
2022-11-21T01:09:26.054Z,98480.63
2022-11-21T01:11:52.476Z,98481.41
2022-11-21T01:14:18.916Z,98478.22
2022-11-21T01:16:45.296Z,98482.28
2022-11-21T01:19:11.708Z,98480.53
2022-11-21T01:21:38.139Z,98474.69
2022-11-21T01:24:04.805Z,98477.25
2022-11-21T01:26:32.836Z,98484.19
2022-11-21T01:28:59.283Z,98486.09
2022-11-21T01:31:27.938Z,98477.94
2022-11-21T01:33:54.954Z,98484.06
2022-11-21T01:36:23.404Z,98484.25
2022-11-21T01:38:51.997Z,98491.03
2022-11-21T01:41:25.391Z,98482.78
2022-11-21T01:43:51.869Z,98480.38
2022-11-21T01:46:19.817Z,98472.59
2022-11-21T01:49:07.597Z,98474.19
2022-11-21T01:51:36.607Z,98471.47
2022-11-21T01:54:07.075Z,98470.63
2022-11-21T01:56:39.349Z,98466.56
2022-11-21T01:59:06.865Z,98466.22
2022-11-21T02:01:34.655Z,98466.56
2022-11-21T02:04:02.984Z,98469.75
2022-11-21T02:06:29.718Z,98468.13
2022-11-21T02:08:57.745Z,98475.16
2022-11-21T02:11:46.680Z,98473.69
2022-11-21T02:14:13.153Z,98483.09
2022-11-21T02:16:39.995Z,98475.44
2022-11-21T02:19:10.876Z,98483.91
2022-11-21T02:21:46.256Z,98484.06
2022-11-21T02:24:28.240Z,98475.28
2022-11-21T02:26:54.869Z,98475.44
2022-11-21T02:29:21.456Z,98472.97
2022-11-21T02:31:47.867Z,98472.88
2022-11-21T02:34:14.353Z,98476.41
2022-11-21T02:36:46.030Z,98468.00
2022-11-21T02:39:22.932Z,98467.78
2022-11-21T02:42:10.592Z,98465.22
2022-11-21T02:44:56.361Z,98474.41
2022-11-21T02:47:23.889Z,98471.81
2022-11-21T02:50:09.131Z,98477.84
2022-11-21T02:52:35.551Z,98478.44
2022-11-21T02:55:01.920Z,98471.72
2022-11-21T02:57:28.523Z,98469.09
2022-11-21T02:59:54.934Z,98476.81
2022-11-21T03:02:21.351Z,98470.53
2022-11-21T03:04:48.004Z,98464.78
2022-11-21T03:07:14.630Z,98464.66
2022-11-21T03:09:41.078Z,98460.19
2022-11-21T03:12:08.837Z,98466.31
2022-11-21T03:14:36.180Z,98460.25
2022-11-21T03:17:03.907Z,98458.44
2022-11-21T03:19:30.649Z,98461.81
2022-11-21T03:21:57.023Z,98457.50
2022-11-21T03:24:23.391Z,98454.94
2022-11-21T03:26:49.805Z,98451.75
2022-11-21T03:29:16.200Z,98446.31
2022-11-21T03:31:42.654Z,98447.28
2022-11-21T03:34:09.723Z,98446.78
2022-11-21T03:36:36.263Z,98442.47
2022-11-21T03:39:02.642Z,98439.78
2022-11-21T03:41:32.108Z,98443.50
2022-11-21T03:43:59.727Z,98447.22
2022-11-21T03:46:26.863Z,98442.91
2022-11-21T03:48:53.409Z,98443.59
2022-11-21T03:51:20.259Z,98447.88
2022-11-21T03:53:46.795Z,98449.13
2022-11-21T03:56:13.290Z,98457.81
2022-11-21T03:58:39.725Z,98457.81
2022-11-21T04:01:06.270Z,98449.50
2022-11-21T04:03:32.911Z,98449.56
2022-11-21T04:05:59.322Z,98451.81
2022-11-21T04:08:25.804Z,98452.75
2022-11-21T04:10:53.680Z,98453.88
2022-11-21T04:13:20.454Z,98451.22
2022-11-21T04:15:46.973Z,98456.41
2022-11-21T04:18:13.810Z,98452.09
2022-11-21T04:20:40.660Z,98458.69
2022-11-21T04:23:07.338Z,98455.09
2022-11-21T04:25:34.111Z,98463.50
2022-11-21T04:28:01.869Z,98458.59
2022-11-21T04:30:29.035Z,98458.41
2022-11-21T04:32:56.222Z,98465.09
2022-11-21T04:35:23.709Z,98454.72
2022-11-21T04:37:50.610Z,98465.53
2022-11-21T04:40:17.109Z,98465.59
2022-11-21T04:42:44.686Z,98471.34
2022-11-21T04:45:11.635Z,98469.47
2022-11-21T04:47:38.919Z,98477.03
2022-11-21T04:50:06.026Z,98468.19
2022-11-21T04:52:32.423Z,98472.50
2022-11-21T04:54:59.354Z,98481.81
2022-11-21T04:57:27.751Z,98473.94
2022-11-21T04:59:54.500Z,98476.00
2022-11-21T05:02:20.918Z,98464.75
2022-11-21T05:04:47.319Z,98470.25
2022-11-21T05:07:14.357Z,98472.75
2022-11-21T05:09:40.947Z,98468.69
2022-11-21T05:12:27.995Z,98468.53
2022-11-21T05:14:54.523Z,98473.78
2022-11-21T05:17:21.160Z,98474.38
2022-11-21T05:19:47.542Z,98472.16
2022-11-21T05:22:13.985Z,98453.78
2022-11-21T05:24:40.367Z,98459.75
2022-11-21T05:27:06.742Z,98458.28
2022-11-21T05:29:33.239Z,98453.44
2022-11-21T05:31:59.633Z,98449.28
2022-11-21T05:34:26.450Z,98466.56
2022-11-21T05:36:57.181Z,98465.06
2022-11-21T05:39:23.874Z,98466.50
2022-11-21T05:41:50.415Z,98456.81
2022-11-21T05:44:16.956Z,98464.50
2022-11-21T05:46:43.344Z,98462.09
2022-11-21T05:49:09.973Z,98457.09
2022-11-21T05:51:36.446Z,98453.44
2022-11-21T05:54:03.484Z,98460.88
2022-11-21T05:56:30.066Z,98461.66
2022-11-21T05:58:57.902Z,98465.56
2022-11-21T06:01:43.409Z,98456.72
2022-11-21T06:04:10.193Z,98458.84
2022-11-21T06:06:36.961Z,98453.13
2022-11-21T06:09:04.746Z,98458.22
2022-11-21T06:11:31.342Z,98459.97
2022-11-21T06:13:57.763Z,98468.13
2022-11-21T06:16:24.211Z,98459.97
2022-11-21T06:18:58.412Z,98456.63
2022-11-21T06:21:28.090Z,98457.34
2022-11-21T06:23:56.191Z,98460.94
2022-11-21T06:26:24.950Z,98458.81
2022-11-21T06:28:51.759Z,98461.19
2022-11-21T06:31:23.387Z,98445.97
2022-11-21T06:33:54.225Z,98447.06
2022-11-21T06:36:20.903Z,98447.56
2022-11-21T06:38:47.356Z,98447.72
2022-11-21T06:41:15.808Z,98459.03
2022-11-21T06:43:42.506Z,98449.72
2022-11-21T06:46:09.790Z,98452.03
2022-11-21T06:48:37.323Z,98446.78
2022-11-21T06:51:05.395Z,98455.34
2022-11-21T06:53:32.007Z,98449.72
2022-11-21T06:55:59.833Z,98452.19
2022-11-21T06:58:26.302Z,98444.78
2022-11-21T07:00:52.790Z,98443.91
2022-11-21T07:03:19.274Z,98446.75
2022-11-21T07:05:45.706Z,98442.53
2022-11-21T07:08:13.528Z,98438.41
2022-11-21T07:10:42.543Z,98447.22
2022-11-21T07:13:21.601Z,98447.56
2022-11-21T07:15:51.831Z,98452.66
2022-11-21T07:18:19.370Z,98449.44
2022-11-21T07:20:45.980Z,98451.63
2022-11-21T07:23:12.567Z,98449.16
2022-11-21T07:25:42.839Z,98445.47
2022-11-21T07:28:09.756Z,98447.09
2022-11-21T07:30:36.837Z,98455.28
2022-11-21T07:33:05.870Z,98441.66
2022-11-21T07:35:33.502Z,98437.66
2022-11-21T07:38:00.665Z,98442.25
2022-11-21T07:40:27.338Z,98432.66
2022-11-21T07:42:53.887Z,98433.66
2022-11-21T07:45:20.367Z,98435.59
2022-11-21T07:47:46.907Z,98438.78
2022-11-21T07:50:13.885Z,98432.06
2022-11-21T07:52:40.342Z,98427.75
2022-11-21T07:55:07.378Z,98420.44
2022-11-21T07:57:34.213Z,98410.59
2022-11-21T08:00:00.641Z,98405.47
2022-11-21T08:02:28.200Z,98401.41
2022-11-21T08:04:54.932Z,98401.84
2022-11-21T08:07:22.692Z,98393.75
2022-11-21T08:09:49.196Z,98396.75
2022-11-21T08:12:15.767Z,98395.53
2022-11-21T08:14:42.229Z,98393.06
2022-11-21T08:17:08.624Z,98388.66
2022-11-21T08:19:35.238Z,98394.78
2022-11-21T08:22:01.658Z,98387.66
2022-11-21T08:24:28.166Z,98391.03
2022-11-21T08:26:54.624Z,98390.28
2022-11-21T08:29:21.151Z,98392.75
2022-11-21T08:31:47.564Z,98392.25
2022-11-21T08:34:14.734Z,98395.63
2022-11-21T08:36:41.265Z,98391.59
2022-11-21T08:39:07.650Z,98383.88
2022-11-21T08:41:52.711Z,98377.25
2022-11-21T08:44:19.154Z,98376.00
2022-11-21T08:46:45.535Z,98368.34
2022-11-21T08:49:11.962Z,98354.72
2022-11-21T08:51:38.404Z,98350.22
2022-11-21T08:54:04.879Z,98345.13
2022-11-21T08:56:31.314Z,98338.66
2022-11-21T08:58:57.721Z,98337.78
2022-11-21T09:01:24.190Z,98345.53
2022-11-21T09:03:50.665Z,98336.38
2022-11-21T09:06:17.062Z,98335.03
2022-11-21T09:08:43.468Z,98331.91
2022-11-21T09:11:10.274Z,98330.94
2022-11-21T09:13:37.053Z,98329.22
2022-11-21T09:16:22.166Z,98329.16
2022-11-21T09:18:52.039Z,98332.94
2022-11-21T09:21:19.951Z,98333.66
2022-11-21T09:23:47.060Z,98324.41
2022-11-21T09:26:13.756Z,98323.47
2022-11-21T09:28:41.293Z,98326.38
2022-11-21T09:31:08.661Z,98316.56
2022-11-21T09:33:35.739Z,98315.41
2022-11-21T09:36:02.122Z,98320.34
2022-11-21T09:38:29.995Z,98317.09
2022-11-21T09:41:33.888Z,98312.88
2022-11-21T09:44:06.285Z,98317.03
2022-11-21T09:46:36.174Z,98306.28
2022-11-21T09:49:05.411Z,98311.81
2022-11-21T09:51:32.062Z,98309.91
2022-11-21T09:54:02.197Z,98303.94
2022-11-21T09:56:31.258Z,98302.44
2022-11-21T09:59:04.375Z,98301.84
2022-11-21T10:01:30.996Z,98299.75
2022-11-21T10:03:57.466Z,98284.88
2022-11-21T10:06:29.507Z,98292.22
2022-11-21T10:09:12.208Z,98281.19
2022-11-21T10:12:20.877Z,98271.69
2022-11-21T10:15:32.451Z,98264.56
2022-11-21T10:18:40.538Z,98256.25
2022-11-21T10:21:16.092Z,98241.25
2022-11-21T10:24:08.551Z,98242.34
2022-11-21T10:26:56.230Z,98220.22
2022-11-21T10:29:35.745Z,98221.25
2022-11-21T10:32:09.115Z,98223.25
2022-11-21T10:34:37.650Z,98213.88
2022-11-21T10:37:27.284Z,98203.03
2022-11-21T10:39:54.660Z,98212.63
2022-11-21T10:42:35.689Z,98206.69
2022-11-21T10:45:19.202Z,98202.63
2022-11-21T10:47:53.203Z,98197.94
2022-11-21T10:50:38.375Z,98196.38
2022-11-21T10:53:38.755Z,98196.72
2022-11-21T10:56:12.524Z,98194.81
2022-11-21T10:58:54.030Z,98188.97
2022-11-21T11:01:30.846Z,98178.00
2022-11-21T11:06:56.526Z,98165.59
2022-11-21T11:09:35.134Z,98160.50
2022-11-21T11:12:47.563Z,98157.06
2022-11-21T11:15:22.722Z,98152.34
2022-11-21T11:17:55.490Z,98145.22
2022-11-21T11:20:35.600Z,98145.22
2022-11-21T11:23:25.259Z,98133.34
2022-11-21T11:25:51.591Z,98129.75
2022-11-21T11:28:24.005Z,98122.06
2022-11-21T11:30:52.046Z,98110.78
2022-11-21T11:33:30.710Z,98104.56
2022-11-21T11:36:21.926Z,98101.03
2022-11-21T11:39:00.089Z,98089.22
2022-11-21T11:41:52.475Z,98084.00
2022-11-21T11:44:50.303Z,98072.09
2022-11-21T11:47:33.233Z,98065.91
2022-11-21T11:50:21.221Z,98057.66
2022-11-21T11:52:50.740Z,98055.81
2022-11-21T11:55:22.494Z,98046.47
2022-11-21T11:57:50.454Z,98045.69
2022-11-21T12:00:25.292Z,98045.78
2022-11-21T12:03:00.278Z,98039.84
2022-11-21T12:05:28.413Z,98027.44
2022-11-21T12:11:27.827Z,98005.63
2022-11-21T12:13:56.574Z,97995.28
2022-11-21T12:16:24.753Z,97997.16
2022-11-21T12:18:55.973Z,97992.13
2022-11-21T12:21:23.394Z,97984.88
2022-11-21T12:23:53.519Z,97978.41
2022-11-21T12:26:38.211Z,97970.72
2022-11-21T12:29:13.516Z,97969.13
2022-11-21T12:32:11.291Z,97962.22
2022-11-21T12:34:56.379Z,97967.47
2022-11-21T12:37:40.875Z,97962.09
2022-11-21T12:40:35.234Z,97950.06
2022-11-21T12:43:07.749Z,97947.25
2022-11-21T12:45:40.272Z,97943.00
2022-11-21T12:48:32.777Z,97933.03
2022-11-21T12:51:49.608Z,97921.44
2022-11-21T12:54:31.304Z,97923.31
2022-11-21T12:57:05.638Z,97914.84
2022-11-21T12:59:40.241Z,97912.09
2022-11-21T13:02:25.090Z,97917.50
2022-11-21T13:04:53.718Z,97909.91
2022-11-21T13:07:20.867Z,97908.78
2022-11-21T13:09:48.934Z,97902.13
2022-11-21T13:12:33.471Z,97899.56
2022-11-21T13:15:18.308Z,97897.47
2022-11-21T13:17:49.557Z,97893.91
2022-11-21T13:20:28.084Z,97888.03
2022-11-21T13:22:56.622Z,97878.56
2022-11-21T13:25:32.024Z,97869.19
2022-11-21T13:28:18.653Z,97864.00
2022-11-21T13:30:52.693Z,97854.75
2022-11-21T13:33:34.568Z,97844.41
2022-11-21T13:36:10.359Z,97843.72
2022-11-21T13:39:17.447Z,97835.06
2022-11-21T13:42:20.716Z,97830.59
2022-11-21T13:44:47.662Z,97817.16
2022-11-21T13:48:03.218Z,97818.81
2022-11-21T13:50:50.565Z,97818.56
2022-11-21T13:53:29.750Z,97804.03
2022-11-21T13:55:59.014Z,97776.59
2022-11-21T13:58:31.104Z,97767.38
2022-11-21T14:01:22.100Z,97763.00
2022-11-21T14:04:07.340Z,97759.00
2022-11-21T14:06:45.908Z,97748.72
2022-11-21T14:09:34.692Z,97746.13
2022-11-21T14:12:04.855Z,97737.63
2022-11-21T14:14:39.807Z,97728.06
2022-11-21T14:17:44.838Z,97726.06
2022-11-21T14:20:35.985Z,97728.53
2022-11-21T14:23:33.169Z,97718.25
2022-11-21T14:26:02.556Z,97720.03
2022-11-21T14:28:34.369Z,97714.94
2022-11-21T14:31:02.458Z,97712.53
2022-11-21T14:33:35.173Z,97709.16
2022-11-21T14:36:04.567Z,97697.19
2022-11-21T14:39:13.950Z,97696.97
2022-11-21T14:41:38.732Z,97674.94
2022-11-21T14:44:12.899Z,97678.09
2022-11-21T14:46:40.745Z,97680.38
2022-11-21T14:49:16.256Z,97660.25
2022-11-21T14:51:48.661Z,97660.25
2022-11-21T14:54:19.016Z,97660.81
2022-11-21T14:56:48.234Z,97661.69
2022-11-21T14:59:25.190Z,97650.50
2022-11-21T15:01:57.336Z,97641.97
2022-11-21T15:04:30.216Z,97636.63
2022-11-21T15:06:57.801Z,97638.28
2022-11-21T15:12:13.314Z,97631.25
2022-11-21T15:14:47.134Z,97619.34
2022-11-21T15:17:17.466Z,97574.78
2022-11-21T15:19:45.112Z,97548.09
2022-11-21T15:22:24.252Z,97540.69
2022-11-21T15:24:50.657Z,97538.06
2022-11-21T15:27:28.570Z,97534.38
2022-11-21T15:30:19.038Z,97527.28
2022-11-21T15:33:03.837Z,97509.38
2022-11-21T15:35:49.629Z,97497.25
2022-11-21T15:38:33.373Z,97485.59
2022-11-21T15:41:09.176Z,97478.81
2022-11-21T15:43:35.577Z,97479.44
2022-11-21T15:46:15.822Z,97472.19
2022-11-21T15:48:44.794Z,97472.31
2022-11-21T15:51:11.343Z,97467.13
2022-11-21T15:53:38.564Z,97455.91
2022-11-21T15:56:05.550Z,97454.88
2022-11-21T15:58:32.278Z,97464.38
2022-11-21T16:01:00.187Z,97464.56
2022-11-21T16:03:26.825Z,97469.31
2022-11-21T16:05:53.242Z,97462.66
2022-11-21T16:08:19.604Z,97469.69
2022-11-21T16:10:45.997Z,97464.13
2022-11-21T16:13:12.789Z,97447.84
2022-11-21T16:15:39.670Z,97426.44
2022-11-21T16:18:06.165Z,97420.56
2022-11-21T16:20:32.650Z,97441.84
2022-11-21T16:22:59.102Z,97447.06
2022-11-21T16:25:25.530Z,97450.16
2022-11-21T16:27:51.899Z,97463.06
2022-11-21T16:30:18.976Z,97456.84
2022-11-21T16:32:45.418Z,97456.06
2022-11-21T16:35:11.870Z,97450.00
2022-11-21T16:37:38.938Z,97445.78
2022-11-21T16:40:06.134Z,97434.66
2022-11-21T16:42:32.593Z,97435.16
2022-11-21T16:44:59.025Z,97438.56
2022-11-21T16:47:25.457Z,97435.25
2022-11-21T16:49:51.845Z,97440.34
2022-11-21T16:52:18.360Z,97437.59
2022-11-21T16:54:44.803Z,97433.31
2022-11-21T16:57:11.259Z,97426.50
2022-11-21T16:59:37.679Z,97412.16
2022-11-21T17:02:04.217Z,97398.47
2022-11-21T17:04:31.029Z,97399.25
2022-11-21T17:06:57.659Z,97401.66
2022-11-21T17:09:24.112Z,97397.72
2022-11-21T17:11:50.491Z,97385.56
2022-11-21T17:14:16.897Z,97391.44
2022-11-21T17:16:43.370Z,97377.91
2022-11-21T17:19:11.306Z,97375.47
2022-11-21T17:21:37.759Z,97378.66
2022-11-21T17:24:04.265Z,97374.31
2022-11-21T17:26:30.711Z,97376.97
2022-11-21T17:28:59.484Z,97379.69
2022-11-21T17:31:26.216Z,97369.00
2022-11-21T17:33:54.550Z,97383.44
2022-11-21T17:36:23.281Z,97370.59
2022-11-21T17:38:49.839Z,97367.38
2022-11-21T17:41:17.912Z,97379.22
2022-11-21T17:43:44.853Z,97389.63
2022-11-21T17:46:18.925Z,97377.59
2022-11-21T17:48:52.920Z,97374.13
2022-11-21T17:51:22.521Z,97381.91
2022-11-21T17:53:50.221Z,97379.50
2022-11-21T17:56:22.596Z,97374.31
2022-11-21T17:58:49.694Z,97360.81
2022-11-21T18:01:19.729Z,97359.84
2022-11-21T18:03:56.787Z,97364.31
2022-11-21T18:06:23.990Z,97358.47
2022-11-21T18:08:50.383Z,97357.53
2022-11-21T18:11:21.355Z,97347.97
2022-11-21T18:13:48.829Z,97336.22
2022-11-21T18:16:17.739Z,97331.22
2022-11-21T18:18:44.680Z,97316.59
2022-11-21T18:21:22.253Z,97323.38
2022-11-21T18:23:49.929Z,97318.44
2022-11-21T18:26:25.421Z,97314.28
2022-11-21T18:29:13.356Z,97311.84
2022-11-21T18:31:42.815Z,97308.28
2022-11-21T18:34:09.611Z,97305.00
2022-11-21T18:36:36.136Z,97298.97
2022-11-21T18:39:08.761Z,97296.34
2022-11-21T18:41:38.813Z,97286.97
2022-11-21T18:44:06.595Z,97286.03
2022-11-21T18:46:34.520Z,97289.53
2022-11-21T18:49:04.641Z,97296.19
2022-11-21T18:51:33.078Z,97292.81
2022-11-21T18:54:04.076Z,97294.41
2022-11-21T18:56:30.628Z,97293.72
2022-11-21T18:58:58.833Z,97291.06
2022-11-21T19:01:28.140Z,97287.63
2022-11-21T19:03:55.126Z,97286.69
2022-11-21T19:06:22.554Z,97285.88
2022-11-21T19:08:53.452Z,97277.41
2022-11-21T19:11:21.239Z,97286.75
2022-11-21T19:13:48.593Z,97279.97
2022-11-21T19:16:17.897Z,97284.22
2022-11-21T19:18:51.291Z,97280.78
2022-11-21T19:21:26.504Z,97279.97
2022-11-21T19:23:52.927Z,97277.66
2022-11-21T19:26:21.522Z,97269.63
2022-11-21T19:28:48.310Z,97263.56
2022-11-21T19:31:17.100Z,97253.19
2022-11-21T19:33:43.746Z,97250.56
2022-11-21T19:36:14.298Z,97244.53
2022-11-21T19:38:41.724Z,97246.91
2022-11-21T19:41:16.091Z,97250.94
2022-11-21T19:43:48.009Z,97254.31
2022-11-21T19:46:16.542Z,97249.31
2022-11-21T19:48:43.726Z,97261.34
2022-11-21T19:51:10.275Z,97261.34
2022-11-21T19:53:38.813Z,97253.84
2022-11-21T19:56:10.303Z,97253.75
2022-11-21T19:58:36.707Z,97260.22
2022-11-21T20:01:11.363Z,97256.81
2022-11-21T20:03:39.093Z,97250.84
2022-11-21T20:06:15.531Z,97248.25
2022-11-21T20:08:42.754Z,97240.56
2022-11-21T20:11:11.499Z,97237.06
2022-11-21T20:13:43.853Z,97238.72
2022-11-21T20:16:39.989Z,97223.16
2022-11-21T20:19:08.803Z,97216.56
2022-11-21T20:21:36.262Z,97207.00
2022-11-21T20:24:03.704Z,97210.66
2022-11-21T20:26:30.254Z,97206.22
2022-11-21T20:28:56.831Z,97201.91
2022-11-21T20:31:32.063Z,97209.56
2022-11-21T20:34:00.919Z,97205.34
2022-11-21T20:36:32.248Z,97212.72
2022-11-21T20:39:00.393Z,97213.75
2022-11-21T20:41:28.539Z,97204.22
2022-11-21T20:44:44.620Z,97208.69
2022-11-21T20:46:42.824Z,97205.47
2022-11-21T20:49:09.397Z,97200.44
2022-11-21T20:52:55.982Z,97196.97
2022-11-21T20:54:22.269Z,97193.66
2022-11-21T20:56:48.761Z,97192.00
2022-11-21T20:59:15.204Z,97191.28
2022-11-21T21:01:41.746Z,97192.88
2022-11-21T21:04:09.336Z,97182.69
2022-11-21T21:06:35.888Z,97189.28
2022-11-21T21:09:02.292Z,97187.56
2022-11-21T21:11:50.940Z,97178.25
2022-11-21T21:14:15.093Z,97171.53
2022-11-21T21:16:43.243Z,97170.59
2022-11-21T21:19:09.607Z,97166.38
2022-11-21T21:21:36.082Z,97160.31
2022-11-21T21:24:05.132Z,97169.75
2022-11-21T21:26:41.756Z,97179.19
2022-11-21T21:29:13.107Z,97184.53
2022-11-21T21:31:42.700Z,97170.88
2022-11-21T21:34:11.802Z,97164.97
2022-11-21T21:36:38.240Z,97155.56
2022-11-21T21:39:04.657Z,97162.50
2022-11-21T21:41:31.630Z,97176.28
2022-11-21T21:43:58.169Z,97179.34
2022-11-21T21:46:27.227Z,97172.63
2022-11-21T21:48:56.116Z,97169.06
2022-11-21T21:51:27.294Z,97173.25
2022-11-21T21:53:54.922Z,97174.00
2022-11-21T21:56:22.414Z,97167.31
2022-11-21T21:58:49.970Z,97162.84
2022-11-21T22:01:35.391Z,97168.03
2022-11-21T22:04:03.412Z,97164.53
2022-11-21T22:06:32.300Z,97163.06
2022-11-21T22:08:58.893Z,97167.22
2022-11-21T22:11:27.038Z,97161.41
2022-11-21T22:13:57.411Z,97167.16
2022-11-21T22:16:24.124Z,97176.66
2022-11-21T22:18:51.107Z,97179.97
2022-11-21T22:21:18.365Z,97188.50
2022-11-21T22:24:09.397Z,97179.25
2022-11-21T22:26:32.032Z,97171.75
2022-11-21T22:28:58.415Z,97173.50
2022-11-21T22:31:24.799Z,97181.22
2022-11-21T22:33:51.421Z,97182.91
2022-11-21T22:36:18.588Z,97174.41
2022-11-21T22:38:45.171Z,97170.25
2022-11-21T22:41:18.046Z,97166.09
2022-11-21T22:43:45.326Z,97178.97
2022-11-21T22:46:12.666Z,97179.94
2022-11-21T22:48:39.628Z,97187.53
2022-11-21T22:51:06.778Z,97187.53
2022-11-21T22:53:38.542Z,97196.13
2022-11-21T22:56:08.891Z,97199.84
2022-11-21T22:58:37.501Z,97200.78
2022-11-21T23:01:15.230Z,97191.47
2022-11-21T23:03:42.683Z,97199.03
2022-11-21T23:06:11.363Z,97199.97
2022-11-21T23:08:38.470Z,97206.91
2022-11-21T23:11:13.118Z,97205.94
2022-11-21T23:13:41.171Z,97211.22
2022-11-21T23:16:07.595Z,97211.13
2022-11-21T23:18:34.172Z,97212.19
2022-11-21T23:21:01.188Z,97218.91
2022-11-21T23:23:27.618Z,97223.31
2022-11-21T23:25:54.115Z,97224.34
2022-11-21T23:28:20.912Z,97229.53
2022-11-21T23:30:48.533Z,97228.72
2022-11-21T23:33:15.386Z,97220.19
2022-11-21T23:35:42.921Z,97226.31
2022-11-21T23:38:09.759Z,97224.66
2022-11-21T23:40:36.463Z,97211.06
2022-11-21T23:43:02.855Z,97210.31
2022-11-21T23:45:29.365Z,97211.25
2022-11-21T23:47:55.873Z,97206.91
2022-11-21T23:50:22.390Z,97211.22
2022-11-21T23:52:48.973Z,97212.94
2022-11-21T23:55:16.183Z,97207.81
2022-11-21T23:57:46.345Z,97212.16
